sensor_id;sensor_type;location;lat;lon;timestamp;P1;durP1;ratioP1;P2;durP2;ratioP2
27412;SDS011;14871;52.702;5.230;2023-02-03T00:01:28;12.98;;;3.63;;
27412;SDS011;14871;52.702;5.230;2023-02-03T00:03:53;11.45;;;3.33;;
27412;SDS011;14871;52.702;5.230;2023-02-03T00:06:19;13.45;;;3.53;;
27412;SDS011;14871;52.702;5.230;2023-02-03T00:08:45;12.98;;;3.10;;
27412;SDS011;14871;52.702;5.230;2023-02-03T00:11:10;16.90;;;3.58;;
27412;SDS011;14871;52.702;5.230;2023-02-03T00:13:36;13.23;;;3.38;;
27412;SDS011;14871;52.702;5.230;2023-02-03T00:16:02;15.07;;;3.78;;
27412;SDS011;14871;52.702;5.230;2023-02-03T00:18:30;12.40;;;3.13;;
27412;SDS011;14871;52.702;5.230;2023-02-03T00:20:56;9.52;;;3.03;;
27412;SDS011;14871;52.702;5.230;2023-02-03T00:23:22;14.27;;;3.28;;
27412;SDS011;14871;52.702;5.230;2023-02-03T00:25:49;12.85;;;3.60;;
27412;SDS011;14871;52.702;5.230;2023-02-03T00:28:15;15.65;;;3.50;;
27412;SDS011;14871;52.702;5.230;2023-02-03T00:30:41;21.83;;;4.18;;
27412;SDS011;14871;52.702;5.230;2023-02-03T00:33:07;13.15;;;3.22;;
27412;SDS011;14871;52.702;5.230;2023-02-03T00:35:32;12.18;;;3.25;;
27412;SDS011;14871;52.702;5.230;2023-02-03T00:38:01;16.55;;;3.42;;
27412;SDS011;14871;52.702;5.230;2023-02-03T00:40:26;18.48;;;3.65;;
27412;SDS011;14871;52.702;5.230;2023-02-03T00:42:53;17.30;;;3.17;;
27412;SDS011;14871;52.702;5.230;2023-02-03T00:45:19;21.05;;;3.88;;
27412;SDS011;14871;52.702;5.230;2023-02-03T00:47:45;12.93;;;3.38;;
27412;SDS011;14871;52.702;5.230;2023-02-03T00:50:10;13.13;;;2.67;;
27412;SDS011;14871;52.702;5.230;2023-02-03T00:52:36;16.00;;;3.55;;
27412;SDS011;14871;52.702;5.230;2023-02-03T00:55:02;13.18;;;3.40;;
27412;SDS011;14871;52.702;5.230;2023-02-03T00:57:29;10.35;;;3.40;;
27412;SDS011;14871;52.702;5.230;2023-02-03T00:59:54;10.23;;;2.45;;
27412;SDS011;14871;52.702;5.230;2023-02-03T01:02:21;10.18;;;2.75;;
27412;SDS011;14871;52.702;5.230;2023-02-03T01:04:47;11.93;;;2.78;;
27412;SDS011;14871;52.702;5.230;2023-02-03T01:07:13;11.38;;;2.55;;
27412;SDS011;14871;52.702;5.230;2023-02-03T01:09:39;12.00;;;2.95;;
27412;SDS011;14871;52.702;5.230;2023-02-03T01:12:04;12.10;;;2.75;;
27412;SDS011;14871;52.702;5.230;2023-02-03T01:14:30;10.48;;;2.60;;
27412;SDS011;14871;52.702;5.230;2023-02-03T01:16:56;13.40;;;2.72;;
27412;SDS011;14871;52.702;5.230;2023-02-03T01:19:22;9.20;;;2.30;;
27412;SDS011;14871;52.702;5.230;2023-02-03T01:21:48;15.25;;;2.22;;
27412;SDS011;14871;52.702;5.230;2023-02-03T01:24:14;10.75;;;2.70;;
27412;SDS011;14871;52.702;5.230;2023-02-03T01:26:40;9.10;;;2.45;;
27412;SDS011;14871;52.702;5.230;2023-02-03T01:29:06;8.25;;;2.47;;
27412;SDS011;14871;52.702;5.230;2023-02-03T01:31:36;17.63;;;3.17;;
27412;SDS011;14871;52.702;5.230;2023-02-03T01:34:03;15.95;;;3.72;;
27412;SDS011;14871;52.702;5.230;2023-02-03T01:36:31;12.48;;;2.85;;
27412;SDS011;14871;52.702;5.230;2023-02-03T01:38:58;14.70;;;3.47;;
27412;SDS011;14871;52.702;5.230;2023-02-03T01:41:25;10.70;;;3.03;;
27412;SDS011;14871;52.702;5.230;2023-02-03T01:43:53;15.05;;;3.10;;
27412;SDS011;14871;52.702;5.230;2023-02-03T01:46:34;16.13;;;2.70;;
27412;SDS011;14871;52.702;5.230;2023-02-03T01:49:05;10.18;;;2.47;;
27412;SDS011;14871;52.702;5.230;2023-02-03T01:51:35;11.63;;;2.90;;
27412;SDS011;14871;52.702;5.230;2023-02-03T01:54:04;15.82;;;2.88;;
27412;SDS011;14871;52.702;5.230;2023-02-03T01:56:34;14.40;;;3.30;;
27412;SDS011;14871;52.702;5.230;2023-02-03T01:59:04;11.48;;;3.90;;
27412;SDS011;14871;52.702;5.230;2023-02-03T02:01:30;10.30;;;2.55;;
27412;SDS011;14871;52.702;5.230;2023-02-03T02:03:59;9.45;;;2.30;;
27412;SDS011;14871;52.702;5.230;2023-02-03T02:06:27;12.57;;;3.00;;
27412;SDS011;14871;52.702;5.230;2023-02-03T02:08:52;9.20;;;2.88;;
27412;SDS011;14871;52.702;5.230;2023-02-03T02:11:19;13.55;;;2.78;;
27412;SDS011;14871;52.702;5.230;2023-02-03T02:13:48;11.25;;;2.35;;
27412;SDS011;14871;52.702;5.230;2023-02-03T02:16:18;11.27;;;2.47;;
27412;SDS011;14871;52.702;5.230;2023-02-03T02:21:57;13.95;;;2.90;;
27412;SDS011;14871;52.702;5.230;2023-02-03T02:30:08;13.43;;;2.53;;
27412;SDS011;14871;52.702;5.230;2023-02-03T02:33:00;14.45;;;2.85;;
27412;SDS011;14871;52.702;5.230;2023-02-03T02:42:06;14.32;;;2.22;;
27412;SDS011;14871;52.702;5.230;2023-02-03T02:44:40;11.93;;;2.72;;
27412;SDS011;14871;52.702;5.230;2023-02-03T02:47:15;10.95;;;2.60;;
27412;SDS011;14871;52.702;5.230;2023-02-03T02:52:18;11.63;;;3.33;;
27412;SDS011;14871;52.702;5.230;2023-02-03T02:54:47;18.52;;;3.33;;
27412;SDS011;14871;52.702;5.230;2023-02-03T02:57:16;8.75;;;2.38;;
27412;SDS011;14871;52.702;5.230;2023-02-03T02:59:44;20.90;;;3.00;;
27412;SDS011;14871;52.702;5.230;2023-02-03T03:02:11;10.35;;;2.20;;
27412;SDS011;14871;52.702;5.230;2023-02-03T03:04:37;14.63;;;2.80;;
27412;SDS011;14871;52.702;5.230;2023-02-03T03:07:06;14.35;;;2.85;;
27412;SDS011;14871;52.702;5.230;2023-02-03T03:09:47;14.75;;;2.97;;
27412;SDS011;14871;52.702;5.230;2023-02-03T03:12:23;14.07;;;2.83;;
27412;SDS011;14871;52.702;5.230;2023-02-03T03:14:56;10.52;;;3.17;;
27412;SDS011;14871;52.702;5.230;2023-02-03T03:17:52;17.25;;;3.72;;
27412;SDS011;14871;52.702;5.230;2023-02-03T03:20:21;12.93;;;3.13;;
27412;SDS011;14871;52.702;5.230;2023-02-03T03:22:57;11.23;;;2.38;;
27412;SDS011;14871;52.702;5.230;2023-02-03T03:25:29;10.85;;;2.40;;
27412;SDS011;14871;52.702;5.230;2023-02-03T03:28:01;12.13;;;2.40;;
27412;SDS011;14871;52.702;5.230;2023-02-03T03:30:32;16.00;;;2.47;;
27412;SDS011;14871;52.702;5.230;2023-02-03T03:33:01;18.00;;;2.85;;
27412;SDS011;14871;52.702;5.230;2023-02-03T03:35:30;10.57;;;2.40;;
27412;SDS011;14871;52.702;5.230;2023-02-03T03:38:08;14.73;;;2.75;;
27412;SDS011;14871;52.702;5.230;2023-02-03T03:40:43;18.50;;;3.42;;
27412;SDS011;14871;52.702;5.230;2023-02-03T03:43:19;15.48;;;3.22;;
27412;SDS011;14871;52.702;5.230;2023-02-03T03:45:53;8.80;;;2.67;;
27412;SDS011;14871;52.702;5.230;2023-02-03T03:48:36;11.13;;;2.75;;
27412;SDS011;14871;52.702;5.230;2023-02-03T03:51:18;12.02;;;3.08;;
27412;SDS011;14871;52.702;5.230;2023-02-03T03:53:47;11.70;;;2.50;;
27412;SDS011;14871;52.702;5.230;2023-02-03T03:56:17;19.73;;;3.28;;
27412;SDS011;14871;52.702;5.230;2023-02-03T03:58:48;20.23;;;2.80;;
27412;SDS011;14871;52.702;5.230;2023-02-03T04:01:16;13.38;;;3.28;;
27412;SDS011;14871;52.702;5.230;2023-02-03T04:03:47;11.40;;;3.35;;
27412;SDS011;14871;52.702;5.230;2023-02-03T04:06:16;12.05;;;2.90;;
27412;SDS011;14871;52.702;5.230;2023-02-03T04:08:42;10.30;;;2.80;;
27412;SDS011;14871;52.702;5.230;2023-02-03T04:11:07;10.85;;;2.20;;
27412;SDS011;14871;52.702;5.230;2023-02-03T04:13:33;13.57;;;3.08;;
27412;SDS011;14871;52.702;5.230;2023-02-03T04:15:59;13.00;;;2.58;;
27412;SDS011;14871;52.702;5.230;2023-02-03T04:18:24;9.70;;;2.30;;
27412;SDS011;14871;52.702;5.230;2023-02-03T04:20:50;13.00;;;2.67;;
27412;SDS011;14871;52.702;5.230;2023-02-03T04:23:16;15.85;;;2.40;;
27412;SDS011;14871;52.702;5.230;2023-02-03T04:25:41;15.85;;;2.80;;
27412;SDS011;14871;52.702;5.230;2023-02-03T04:28:07;12.75;;;3.33;;
27412;SDS011;14871;52.702;5.230;2023-02-03T04:30:33;10.98;;;2.70;;
27412;SDS011;14871;52.702;5.230;2023-02-03T04:32:58;12.05;;;2.90;;
27412;SDS011;14871;52.702;5.230;2023-02-03T04:35:24;12.27;;;3.15;;
27412;SDS011;14871;52.702;5.230;2023-02-03T04:37:50;17.58;;;3.72;;
27412;SDS011;14871;52.702;5.230;2023-02-03T04:40:15;13.00;;;2.65;;
27412;SDS011;14871;52.702;5.230;2023-02-03T04:42:41;10.70;;;2.47;;
27412;SDS011;14871;52.702;5.230;2023-02-03T04:45:08;12.02;;;2.58;;
27412;SDS011;14871;52.702;5.230;2023-02-03T04:47:35;13.07;;;2.28;;
27412;SDS011;14871;52.702;5.230;2023-02-03T04:50:01;13.35;;;2.30;;
27412;SDS011;14871;52.702;5.230;2023-02-03T04:52:27;12.93;;;2.75;;
27412;SDS011;14871;52.702;5.230;2023-02-03T04:54:53;13.55;;;3.42;;
27412;SDS011;14871;52.702;5.230;2023-02-03T04:57:18;11.27;;;2.75;;
27412;SDS011;14871;52.702;5.230;2023-02-03T04:59:44;13.88;;;3.15;;
27412;SDS011;14871;52.702;5.230;2023-02-03T05:02:09;10.45;;;2.83;;
27412;SDS011;14871;52.702;5.230;2023-02-03T05:04:35;12.93;;;2.53;;
27412;SDS011;14871;52.702;5.230;2023-02-03T05:07:01;12.48;;;2.97;;
27412;SDS011;14871;52.702;5.230;2023-02-03T05:09:26;16.63;;;2.85;;
27412;SDS011;14871;52.702;5.230;2023-02-03T05:11:52;15.60;;;3.05;;
27412;SDS011;14871;52.702;5.230;2023-02-03T05:14:18;12.32;;;3.13;;
27412;SDS011;14871;52.702;5.230;2023-02-03T05:16:44;16.75;;;2.95;;
27412;SDS011;14871;52.702;5.230;2023-02-03T05:19:09;12.15;;;2.95;;
27412;SDS011;14871;52.702;5.230;2023-02-03T05:21:35;11.10;;;2.70;;
27412;SDS011;14871;52.702;5.230;2023-02-03T05:24:01;14.50;;;4.18;;
27412;SDS011;14871;52.702;5.230;2023-02-03T05:26:27;13.52;;;3.28;;
27412;SDS011;14871;52.702;5.230;2023-02-03T05:28:53;16.63;;;3.08;;
27412;SDS011;14871;52.702;5.230;2023-02-03T05:31:19;13.93;;;2.67;;
27412;SDS011;14871;52.702;5.230;2023-02-03T05:33:44;7.28;;;1.83;;
27412;SDS011;14871;52.702;5.230;2023-02-03T05:36:10;15.52;;;2.80;;
27412;SDS011;14871;52.702;5.230;2023-02-03T05:38:35;10.80;;;2.42;;
27412;SDS011;14871;52.702;5.230;2023-02-03T05:41:01;13.85;;;3.00;;
27412;SDS011;14871;52.702;5.230;2023-02-03T05:43:47;12.85;;;2.60;;
27412;SDS011;14871;52.702;5.230;2023-02-03T05:46:12;15.90;;;2.30;;
27412;SDS011;14871;52.702;5.230;2023-02-03T05:48:38;10.10;;;2.95;;
27412;SDS011;14871;52.702;5.230;2023-02-03T05:51:03;13.32;;;2.65;;
27412;SDS011;14871;52.702;5.230;2023-02-03T05:53:29;9.13;;;2.35;;
27412;SDS011;14871;52.702;5.230;2023-02-03T05:55:55;14.25;;;2.70;;
27412;SDS011;14871;52.702;5.230;2023-02-03T05:58:20;13.50;;;2.67;;
27412;SDS011;14871;52.702;5.230;2023-02-03T06:00:46;12.40;;;2.83;;
27412;SDS011;14871;52.702;5.230;2023-02-03T06:03:12;11.95;;;2.90;;
27412;SDS011;14871;52.702;5.230;2023-02-03T06:05:37;21.35;;;3.55;;
27412;SDS011;14871;52.702;5.230;2023-02-03T06:08:05;16.77;;;3.08;;
27412;SDS011;14871;52.702;5.230;2023-02-03T06:10:31;20.73;;;3.30;;
27412;SDS011;14871;52.702;5.230;2023-02-03T06:12:57;18.85;;;3.63;;
27412;SDS011;14871;52.702;5.230;2023-02-03T06:15:23;13.38;;;2.50;;
27412;SDS011;14871;52.702;5.230;2023-02-03T06:17:48;16.65;;;3.13;;
27412;SDS011;14871;52.702;5.230;2023-02-03T06:20:15;11.98;;;2.90;;
27412;SDS011;14871;52.702;5.230;2023-02-03T06:22:42;21.33;;;3.97;;
27412;SDS011;14871;52.702;5.230;2023-02-03T06:25:08;13.63;;;3.30;;
27412;SDS011;14871;52.702;5.230;2023-02-03T06:27:34;10.95;;;2.80;;
27412;SDS011;14871;52.702;5.230;2023-02-03T06:30:00;18.10;;;3.25;;
27412;SDS011;14871;52.702;5.230;2023-02-03T06:32:26;13.27;;;2.90;;
27412;SDS011;14871;52.702;5.230;2023-02-03T06:34:51;11.55;;;2.80;;
27412;SDS011;14871;52.702;5.230;2023-02-03T06:37:17;16.52;;;2.95;;
27412;SDS011;14871;52.702;5.230;2023-02-03T06:39:42;16.35;;;3.60;;
27412;SDS011;14871;52.702;5.230;2023-02-03T06:42:08;10.38;;;2.85;;
27412;SDS011;14871;52.702;5.230;2023-02-03T06:44:34;16.67;;;3.28;;
27412;SDS011;14871;52.702;5.230;2023-02-03T06:46:59;12.55;;;2.92;;
27412;SDS011;14871;52.702;5.230;2023-02-03T06:49:27;14.68;;;2.28;;
27412;SDS011;14871;52.702;5.230;2023-02-03T06:51:53;13.50;;;2.83;;
27412;SDS011;14871;52.702;5.230;2023-02-03T06:54:18;12.57;;;2.92;;
27412;SDS011;14871;52.702;5.230;2023-02-03T06:56:44;16.90;;;3.08;;
27412;SDS011;14871;52.702;5.230;2023-02-03T06:59:10;13.05;;;2.97;;
27412;SDS011;14871;52.702;5.230;2023-02-03T07:01:35;12.68;;;3.53;;
27412;SDS011;14871;52.702;5.230;2023-02-03T07:04:02;10.00;;;2.60;;
27412;SDS011;14871;52.702;5.230;2023-02-03T07:06:29;12.77;;;2.88;;
27412;SDS011;14871;52.702;5.230;2023-02-03T07:08:58;12.15;;;2.70;;
27412;SDS011;14871;52.702;5.230;2023-02-03T07:11:25;10.30;;;2.60;;
27412;SDS011;14871;52.702;5.230;2023-02-03T07:13:51;15.93;;;2.97;;
27412;SDS011;14871;52.702;5.230;2023-02-03T07:16:17;11.27;;;2.60;;
27412;SDS011;14871;52.702;5.230;2023-02-03T07:18:43;13.35;;;2.63;;
27412;SDS011;14871;52.702;5.230;2023-02-03T07:21:09;14.27;;;3.08;;
27412;SDS011;14871;52.702;5.230;2023-02-03T07:23:36;13.88;;;2.70;;
27412;SDS011;14871;52.702;5.230;2023-02-03T07:26:02;12.93;;;2.67;;
27412;SDS011;14871;52.702;5.230;2023-02-03T07:28:29;10.88;;;2.65;;
27412;SDS011;14871;52.702;5.230;2023-02-03T07:30:55;14.50;;;3.22;;
27412;SDS011;14871;52.702;5.230;2023-02-03T07:33:21;11.10;;;3.10;;
27412;SDS011;14871;52.702;5.230;2023-02-03T07:35:50;13.25;;;2.53;;
27412;SDS011;14871;52.702;5.230;2023-02-03T07:38:20;12.63;;;3.13;;
27412;SDS011;14871;52.702;5.230;2023-02-03T07:40:46;16.63;;;2.95;;
27412;SDS011;14871;52.702;5.230;2023-02-03T07:43:11;13.50;;;3.03;;
27412;SDS011;14871;52.702;5.230;2023-02-03T07:45:38;13.70;;;2.58;;
27412;SDS011;14871;52.702;5.230;2023-02-03T07:48:03;15.05;;;2.92;;
27412;SDS011;14871;52.702;5.230;2023-02-03T07:50:29;16.05;;;3.70;;
27412;SDS011;14871;52.702;5.230;2023-02-03T07:52:55;12.60;;;3.13;;
27412;SDS011;14871;52.702;5.230;2023-02-03T07:55:21;15.00;;;3.10;;
27412;SDS011;14871;52.702;5.230;2023-02-03T07:57:46;18.58;;;3.00;;
27412;SDS011;14871;52.702;5.230;2023-02-03T08:00:13;14.35;;;3.08;;
27412;SDS011;14871;52.702;5.230;2023-02-03T08:02:40;12.73;;;2.78;;
27412;SDS011;14871;52.702;5.230;2023-02-03T08:05:07;19.23;;;3.28;;
27412;SDS011;14871;52.702;5.230;2023-02-03T08:07:33;12.52;;;3.15;;
27412;SDS011;14871;52.702;5.230;2023-02-03T08:09:59;16.80;;;3.35;;
27412;SDS011;14871;52.702;5.230;2023-02-03T08:12:24;17.60;;;3.03;;
27412;SDS011;14871;52.702;5.230;2023-02-03T08:14:50;14.23;;;3.45;;
27412;SDS011;14871;52.702;5.230;2023-02-03T08:17:16;20.00;;;3.42;;
27412;SDS011;14871;52.702;5.230;2023-02-03T08:19:41;17.10;;;3.55;;
27412;SDS011;14871;52.702;5.230;2023-02-03T08:22:07;15.13;;;3.20;;
27412;SDS011;14871;52.702;5.230;2023-02-03T08:24:32;15.15;;;3.00;;
27412;SDS011;14871;52.702;5.230;2023-02-03T08:26:59;17.00;;;3.45;;
27412;SDS011;14871;52.702;5.230;2023-02-03T08:29:25;15.95;;;4.07;;
27412;SDS011;14871;52.702;5.230;2023-02-03T08:31:51;11.93;;;2.92;;
27412;SDS011;14871;52.702;5.230;2023-02-03T08:34:16;16.73;;;3.70;;
27412;SDS011;14871;52.702;5.230;2023-02-03T08:36:42;12.23;;;2.85;;
27412;SDS011;14871;52.702;5.230;2023-02-03T08:39:08;18.98;;;3.40;;
27412;SDS011;14871;52.702;5.230;2023-02-03T08:41:34;15.13;;;3.78;;
27412;SDS011;14871;52.702;5.230;2023-02-03T08:44:00;18.45;;;2.90;;
27412;SDS011;14871;52.702;5.230;2023-02-03T08:46:26;11.88;;;2.83;;
27412;SDS011;14871;52.702;5.230;2023-02-03T08:48:52;17.55;;;3.10;;
27412;SDS011;14871;52.702;5.230;2023-02-03T08:51:20;11.23;;;2.95;;
27412;SDS011;14871;52.702;5.230;2023-02-03T08:53:46;20.15;;;3.92;;
27412;SDS011;14871;52.702;5.230;2023-02-03T08:56:11;20.80;;;3.70;;
27412;SDS011;14871;52.702;5.230;2023-02-03T08:58:37;15.43;;;3.58;;
27412;SDS011;14871;52.702;5.230;2023-02-03T09:01:10;17.15;;;4.97;;
27412;SDS011;14871;52.702;5.230;2023-02-03T09:03:37;14.57;;;3.70;;
27412;SDS011;14871;52.702;5.230;2023-02-03T09:06:04;20.05;;;4.05;;
27412;SDS011;14871;52.702;5.230;2023-02-03T09:08:30;19.63;;;3.58;;
27412;SDS011;14871;52.702;5.230;2023-02-03T09:10:56;18.25;;;3.78;;
27412;SDS011;14871;52.702;5.230;2023-02-03T09:13:22;17.50;;;3.40;;
27412;SDS011;14871;52.702;5.230;2023-02-03T09:15:47;18.98;;;3.92;;
27412;SDS011;14871;52.702;5.230;2023-02-03T09:18:13;15.57;;;3.75;;
27412;SDS011;14871;52.702;5.230;2023-02-03T09:20:39;19.42;;;3.88;;
27412;SDS011;14871;52.702;5.230;2023-02-03T09:23:04;18.13;;;3.20;;
27412;SDS011;14871;52.702;5.230;2023-02-03T09:25:30;20.92;;;3.90;;
27412;SDS011;14871;52.702;5.230;2023-02-03T09:27:56;16.65;;;3.20;;
27412;SDS011;14871;52.702;5.230;2023-02-03T09:30:22;15.32;;;3.60;;
27412;SDS011;14871;52.702;5.230;2023-02-03T09:32:51;15.55;;;2.92;;
27412;SDS011;14871;52.702;5.230;2023-02-03T09:35:18;18.88;;;3.53;;
27412;SDS011;14871;52.702;5.230;2023-02-03T09:37:44;17.23;;;3.70;;
27412;SDS011;14871;52.702;5.230;2023-02-03T09:40:20;13.10;;;3.88;;
27412;SDS011;14871;52.702;5.230;2023-02-03T09:45:25;20.05;;;3.83;;
27412;SDS011;14871;52.702;5.230;2023-02-03T09:47:53;18.98;;;3.42;;
27412;SDS011;14871;52.702;5.230;2023-02-03T09:50:25;18.25;;;3.58;;
27412;SDS011;14871;52.702;5.230;2023-02-03T09:52:54;20.95;;;3.75;;
27412;SDS011;14871;52.702;5.230;2023-02-03T09:58:10;18.08;;;3.60;;
27412;SDS011;14871;52.702;5.230;2023-02-03T10:00:51;17.98;;;4.00;;
27412;SDS011;14871;52.702;5.230;2023-02-03T10:04:09;25.23;;;3.63;;
27412;SDS011;14871;52.702;5.230;2023-02-03T10:06:15;24.67;;;3.67;;
27412;SDS011;14871;52.702;5.230;2023-02-03T10:11:44;15.05;;;2.55;;
27412;SDS011;14871;52.702;5.230;2023-02-03T10:19:25;16.25;;;3.70;;
27412;SDS011;14871;52.702;5.230;2023-02-03T10:21:57;20.27;;;3.53;;
27412;SDS011;14871;52.702;5.230;2023-02-03T10:24:37;17.88;;;3.80;;
27412;SDS011;14871;52.702;5.230;2023-02-03T10:27:19;24.60;;;4.45;;
27412;SDS011;14871;52.702;5.230;2023-02-03T10:29:50;22.38;;;4.40;;
27412;SDS011;14871;52.702;5.230;2023-02-03T10:32:37;20.42;;;3.72;;
27412;SDS011;14871;52.702;5.230;2023-02-03T10:35:05;14.70;;;3.38;;
27412;SDS011;14871;52.702;5.230;2023-02-03T10:37:38;21.90;;;3.65;;
27412;SDS011;14871;52.702;5.230;2023-02-03T10:40:12;20.80;;;4.18;;
27412;SDS011;14871;52.702;5.230;2023-02-03T10:42:39;15.85;;;3.03;;
27412;SDS011;14871;52.702;5.230;2023-02-03T10:45:25;21.73;;;4.45;;
27412;SDS011;14871;52.702;5.230;2023-02-03T10:47:51;21.08;;;3.88;;
27412;SDS011;14871;52.702;5.230;2023-02-03T10:50:20;26.23;;;4.65;;
27412;SDS011;14871;52.702;5.230;2023-02-03T10:53:18;24.80;;;4.22;;
27412;SDS011;14871;52.702;5.230;2023-02-03T10:56:03;20.65;;;5.63;;
27412;SDS011;14871;52.702;5.230;2023-02-03T10:58:32;27.52;;;3.88;;
27412;SDS011;14871;52.702;5.230;2023-02-03T11:03:35;19.40;;;3.90;;
27412;SDS011;14871;52.702;5.230;2023-02-03T11:08:37;19.10;;;4.00;;
27412;SDS011;14871;52.702;5.230;2023-02-03T11:11:08;17.65;;;3.85;;
27412;SDS011;14871;52.702;5.230;2023-02-03T11:13:38;21.30;;;4.43;;
27412;SDS011;14871;52.702;5.230;2023-02-03T11:16:15;15.98;;;3.63;;
27412;SDS011;14871;52.702;5.230;2023-02-03T11:18:50;21.70;;;3.83;;
27412;SDS011;14871;52.702;5.230;2023-02-03T11:26:47;18.30;;;4.10;;
27412;SDS011;14871;52.702;5.230;2023-02-03T11:29:31;17.25;;;4.18;;
27412;SDS011;14871;52.702;5.230;2023-02-03T11:32:02;21.38;;;3.58;;
27412;SDS011;14871;52.702;5.230;2023-02-03T11:42:35;24.67;;;4.07;;
27412;SDS011;14871;52.702;5.230;2023-02-03T11:47:46;24.38;;;4.43;;
27412;SDS011;14871;52.702;5.230;2023-02-03T11:58:38;26.00;;;4.40;;
27412;SDS011;14871;52.702;5.230;2023-02-03T12:12:36;19.35;;;4.07;;
27412;SDS011;14871;52.702;5.230;2023-02-03T12:15:27;30.20;;;5.43;;
27412;SDS011;14871;52.702;5.230;2023-02-03T12:18:26;31.73;;;5.05;;
27412;SDS011;14871;52.702;5.230;2023-02-03T12:24:22;23.67;;;4.40;;
27412;SDS011;14871;52.702;5.230;2023-02-03T12:29:21;31.23;;;4.85;;
27412;SDS011;14871;52.702;5.230;2023-02-03T12:39:51;27.73;;;5.22;;
27412;SDS011;14871;52.702;5.230;2023-02-03T12:42:20;27.65;;;5.45;;
27412;SDS011;14871;52.702;5.230;2023-02-03T12:44:58;30.30;;;5.07;;
27412;SDS011;14871;52.702;5.230;2023-02-03T12:47:50;30.52;;;5.13;;
27412;SDS011;14871;52.702;5.230;2023-02-03T12:50:25;29.48;;;5.60;;
27412;SDS011;14871;52.702;5.230;2023-02-03T12:52:52;32.97;;;5.53;;
27412;SDS011;14871;52.702;5.230;2023-02-03T12:55:39;28.08;;;4.78;;
27412;SDS011;14871;52.702;5.230;2023-02-03T13:03:29;29.70;;;5.57;;
27412;SDS011;14871;52.702;5.230;2023-02-03T13:06:10;30.85;;;5.85;;
27412;SDS011;14871;52.702;5.230;2023-02-03T13:08:59;42.22;;;6.43;;
27412;SDS011;14871;52.702;5.230;2023-02-03T13:11:51;35.20;;;6.13;;
27412;SDS011;14871;52.702;5.230;2023-02-03T13:14:41;37.20;;;6.65;;
27412;SDS011;14871;52.702;5.230;2023-02-03T13:17:17;38.38;;;7.45;;
27412;SDS011;14871;52.702;5.230;2023-02-03T13:19:51;31.33;;;5.93;;
27412;SDS011;14871;52.702;5.230;2023-02-03T13:22:22;34.97;;;5.93;;
27412;SDS011;14871;52.702;5.230;2023-02-03T13:24:52;35.63;;;6.05;;
27412;SDS011;14871;52.702;5.230;2023-02-03T13:28:26;33.83;;;6.45;;
27412;SDS011;14871;52.702;5.230;2023-02-03T13:44:44;42.42;;;6.78;;
27412;SDS011;14871;52.702;5.230;2023-02-03T13:47:32;29.83;;;5.60;;
27412;SDS011;14871;52.702;5.230;2023-02-03T13:50:01;40.78;;;5.85;;
27412;SDS011;14871;52.702;5.230;2023-02-03T13:52:46;33.97;;;5.80;;
27412;SDS011;14871;52.702;5.230;2023-02-03T13:55:27;33.97;;;5.68;;
27412;SDS011;14871;52.702;5.230;2023-02-03T13:58:02;24.10;;;5.88;;
27412;SDS011;14871;52.702;5.230;2023-02-03T14:03:16;35.85;;;6.22;;
27412;SDS011;14871;52.702;5.230;2023-02-03T14:08:40;40.03;;;6.65;;
27412;SDS011;14871;52.702;5.230;2023-02-03T14:16:34;32.60;;;6.35;;
27412;SDS011;14871;52.702;5.230;2023-02-03T14:19:09;31.20;;;5.65;;
27412;SDS011;14871;52.702;5.230;2023-02-03T14:21:37;42.80;;;7.18;;
27412;SDS011;14871;52.702;5.230;2023-02-03T14:24:09;27.35;;;6.45;;
27412;SDS011;14871;52.702;5.230;2023-02-03T14:26:43;41.28;;;7.43;;
27412;SDS011;14871;52.702;5.230;2023-02-03T14:29:25;41.95;;;6.55;;
27412;SDS011;14871;52.702;5.230;2023-02-03T14:36:54;28.77;;;6.20;;
27412;SDS011;14871;52.702;5.230;2023-02-03T14:44:55;31.70;;;6.03;;
27412;SDS011;14871;52.702;5.230;2023-02-03T14:47:58;39.77;;;6.03;;
27412;SDS011;14871;52.702;5.230;2023-02-03T14:56:45;30.85;;;6.05;;
27412;SDS011;14871;52.702;5.230;2023-02-03T15:02:27;27.30;;;5.35;;
27412;SDS011;14871;52.702;5.230;2023-02-03T15:07:56;31.98;;;6.38;;
27412;SDS011;14871;52.702;5.230;2023-02-03T15:10:29;40.60;;;6.45;;
27412;SDS011;14871;52.702;5.230;2023-02-03T15:13:25;36.47;;;7.07;;
27412;SDS011;14871;52.702;5.230;2023-02-03T15:15:53;38.03;;;6.85;;
27412;SDS011;14871;52.702;5.230;2023-02-03T15:18:25;36.97;;;6.10;;
27412;SDS011;14871;52.702;5.230;2023-02-03T15:20:59;35.85;;;5.90;;
27412;SDS011;14871;52.702;5.230;2023-02-03T15:23:26;34.47;;;6.00;;
27412;SDS011;14871;52.702;5.230;2023-02-03T15:25:58;36.22;;;5.90;;
27412;SDS011;14871;52.702;5.230;2023-02-03T15:28:27;43.55;;;7.53;;
27412;SDS011;14871;52.702;5.230;2023-02-03T15:30:55;42.00;;;6.15;;
27412;SDS011;14871;52.702;5.230;2023-02-03T15:33:26;36.08;;;6.60;;
27412;SDS011;14871;52.702;5.230;2023-02-03T15:35:57;34.03;;;6.78;;
27412;SDS011;14871;52.702;5.230;2023-02-03T15:38:28;39.50;;;7.50;;
27412;SDS011;14871;52.702;5.230;2023-02-03T15:40:59;40.08;;;7.07;;
27412;SDS011;14871;52.702;5.230;2023-02-03T15:43:31;33.60;;;6.72;;
27412;SDS011;14871;52.702;5.230;2023-02-03T15:48:51;38.80;;;6.70;;
27412;SDS011;14871;52.702;5.230;2023-02-03T15:54:05;44.25;;;7.00;;
27412;SDS011;14871;52.702;5.230;2023-02-03T15:56:40;38.63;;;8.07;;
27412;SDS011;14871;52.702;5.230;2023-02-03T15:59:23;35.65;;;7.65;;
27412;SDS011;14871;52.702;5.230;2023-02-03T16:01:55;42.38;;;7.13;;
27412;SDS011;14871;52.702;5.230;2023-02-03T16:04:22;43.70;;;6.82;;
27412;SDS011;14871;52.702;5.230;2023-02-03T16:06:49;40.20;;;7.63;;
27412;SDS011;14871;52.702;5.230;2023-02-03T16:09:28;42.67;;;7.97;;
27412;SDS011;14871;52.702;5.230;2023-02-03T16:14:38;39.40;;;6.88;;
27412;SDS011;14871;52.702;5.230;2023-02-03T16:17:04;38.60;;;6.53;;
27412;SDS011;14871;52.702;5.230;2023-02-03T16:19:39;40.17;;;7.10;;
27412;SDS011;14871;52.702;5.230;2023-02-03T16:22:25;36.72;;;7.32;;
27412;SDS011;14871;52.702;5.230;2023-02-03T16:24:52;38.93;;;7.10;;
27412;SDS011;14871;52.702;5.230;2023-02-03T16:29:49;37.30;;;6.35;;
27412;SDS011;14871;52.702;5.230;2023-02-03T16:32:36;40.80;;;7.03;;
27412;SDS011;14871;52.702;5.230;2023-02-03T16:35:21;43.63;;;6.78;;
27412;SDS011;14871;52.702;5.230;2023-02-03T16:38:06;50.28;;;8.27;;
27412;SDS011;14871;52.702;5.230;2023-02-03T16:40:56;37.00;;;6.22;;
27412;SDS011;14871;52.702;5.230;2023-02-03T16:43:41;41.40;;;7.85;;
27412;SDS011;14871;52.702;5.230;2023-02-03T16:46:24;33.72;;;5.93;;
27412;SDS011;14871;52.702;5.230;2023-02-03T16:49:09;35.63;;;6.20;;
27412;SDS011;14871;52.702;5.230;2023-02-03T16:51:53;33.50;;;7.35;;
27412;SDS011;14871;52.702;5.230;2023-02-03T16:54:18;48.33;;;6.93;;
27412;SDS011;14871;52.702;5.230;2023-02-03T16:56:44;30.60;;;6.43;;
27412;SDS011;14871;52.702;5.230;2023-02-03T16:59:10;40.67;;;6.43;;
27412;SDS011;14871;52.702;5.230;2023-02-03T17:01:35;42.42;;;6.80;;
27412;SDS011;14871;52.702;5.230;2023-02-03T17:04:01;33.53;;;7.35;;
27412;SDS011;14871;52.702;5.230;2023-02-03T17:06:27;41.60;;;7.70;;
27412;SDS011;14871;52.702;5.230;2023-02-03T17:08:53;38.63;;;6.57;;
27412;SDS011;14871;52.702;5.230;2023-02-03T17:11:20;33.35;;;6.28;;
27412;SDS011;14871;52.702;5.230;2023-02-03T17:13:47;38.03;;;6.15;;
27412;SDS011;14871;52.702;5.230;2023-02-03T17:16:18;35.92;;;6.18;;
27412;SDS011;14871;52.702;5.230;2023-02-03T17:18:47;40.22;;;6.38;;
27412;SDS011;14871;52.702;5.230;2023-02-03T17:21:14;33.97;;;6.72;;
27412;SDS011;14871;52.702;5.230;2023-02-03T17:23:42;42.53;;;8.45;;